Time;durP1;ratioP1;P1;durP2;ratioP2;P2;SDS_P1;SDS_P2;PMS_P1;PMS_P2;Temp;Humidity;BMP_temperature;BMP_pressure;BME280_temperature;BME280_humidity;BME280_pressure;Samples;Min_cycle;Max_cycle;Signal;HPM_P1;HPM_P2
2023/06/05 00:02:03;;;;;;;4.68;1.70;;;;;;;22.44;39.60;102152.50;5001980;28;20278;-67
2023/06/05 00:04:29;;;;;;;2.88;1.30;;;;;;;22.43;39.75;102152.63;5010194;28;20026;-64
2023/06/05 00:06:56;;;;;;;4.28;1.63;;;;;;;22.42;39.52;102146.47;5019735;28;20033;-65
2023/06/05 00:09:22;;;;;;;4.57;1.73;;;;;;;22.44;39.62;102159.63;5031403;28;20393;-69
2023/06/05 00:11:47;;;;;;;4.10;1.52;;;;;;;22.41;39.47;102154.56;5006309;28;20420;-67
2023/06/05 00:14:12;;;;;;;5.07;1.70;;;;;;;22.42;39.72;102162.41;5021961;28;20537;-65
2023/06/05 00:16:38;;;;;;;3.23;1.33;;;;;;;22.41;39.37;102163.38;5002531;28;20124;-66
2023/06/05 00:19:03;;;;;;;4.53;1.50;;;;;;;22.39;39.37;102159.16;5002319;28;20293;-70
2023/06/05 00:21:29;;;;;;;4.03;1.48;;;;;;;22.38;39.51;102157.44;5002011;28;20118;-66
2023/06/05 00:23:54;;;;;;;3.60;1.50;;;;;;;22.38;39.54;102160.97;5011774;28;20141;-65
2023/06/05 00:26:20;;;;;;;3.20;1.40;;;;;;;22.38;39.65;102158.31;5012957;28;20037;-65
2023/06/05 00:28:46;;;;;;;4.40;1.88;;;;;;;22.36;39.57;102152.25;5022356;28;20270;-66
2023/06/05 00:31:12;;;;;;;3.28;1.50;;;;;;;22.34;39.74;102153.38;5011686;28;20123;-67
2023/06/05 00:33:38;;;;;;;4.10;1.60;;;;;;;22.32;39.70;102145.50;5006227;28;21011;-68
2023/06/05 00:36:04;;;;;;;8.82;1.65;;;;;;;22.36;39.51;102151.41;5004567;28;20065;-65
2023/06/05 00:38:29;;;;;;;4.13;1.50;;;;;;;22.32;39.60;102145.50;5014759;28;20064;-66
2023/06/05 00:40:54;;;;;;;4.33;1.70;;;;;;;22.33;39.55;102156.97;5002276;28;20038;-65
2023/06/05 00:43:20;;;;;;;4.30;1.70;;;;;;;22.30;39.60;102152.75;5001855;28;20350;-66
2023/06/05 00:45:45;;;;;;;3.17;1.50;;;;;;;22.30;39.50;102142.13;5002111;28;20038;-66
2023/06/05 00:48:11;;;;;;;3.92;1.70;;;;;;;22.29;39.82;102151.03;5008477;28;20041;-69
2023/06/05 00:50:37;;;;;;;5.75;1.73;;;;;;;22.27;39.60;102148.50;5017000;28;20427;-65
2023/06/05 00:53:04;;;;;;;3.65;1.60;;;;;;;22.27;39.66;102151.16;5001592;28;20552;-67
2023/06/05 00:55:30;;;;;;;4.13;1.50;;;;;;;22.26;39.49;102149.47;5010540;28;20140;-66
2023/06/05 00:57:56;;;;;;;2.97;1.45;;;;;;;22.27;39.55;102150.28;5012464;28;20144;-67
2023/06/05 01:00:22;;;;;;;5.15;1.55;;;;;;;22.24;39.70;102146.09;5012358;28;20034;-67
2023/06/05 01:02:48;;;;;;;4.90;1.52;;;;;;;22.25;39.70;102147.75;5021274;28;20037;-67
2023/06/05 01:05:14;;;;;;;4.35;1.70;;;;;;;22.24;39.50;102147.91;5009828;28;20057;-66
2023/06/05 01:07:39;;;;;;;3.70;1.67;;;;;;;22.23;39.53;102147.03;5001410;28;20029;-67
2023/06/05 01:10:08;;;;;;;2.67;1.23;;;;;;;22.23;39.63;102152.34;5001203;28;20026;-65
2023/06/05 01:13:01;;;;;;;4.47;1.77;;;;;;;22.22;39.50;102147.16;5001350;28;20042;-65
2023/06/05 01:15:28;;;;;;;3.60;1.73;;;;;;;22.23;39.72;102146.22;5018690;28;20047;-66
2023/06/05 01:17:58;;;;;;;4.60;1.70;;;;;;;22.21;39.46;102142.84;5017713;28;20029;-66
2023/06/05 01:20:32;;;;;;;3.95;1.60;;;;;;;22.20;39.40;102139.31;5001284;28;20038;-66
2023/06/05 01:22:57;;;;;;;3.33;1.38;;;;;;;22.20;39.57;102136.66;5004329;28;20036;-65
2023/06/05 01:25:22;;;;;;;4.37;1.70;;;;;;;22.18;39.66;102135.94;5006510;28;20042;-66
2023/06/05 01:27:54;;;;;;;3.67;1.90;;;;;;;22.19;39.67;102140.31;5006004;28;20268;-70
2023/06/05 01:30:46;;;;;;;3.67;1.52;;;;;;;22.17;39.49;102136.91;5012376;28;20317;-67
2023/06/05 01:33:17;;;;;;;3.70;1.60;;;;;;;22.16;39.48;102139.66;5020966;28;20053;-66
2023/06/05 01:35:44;;;;;;;3.88;1.80;;;;;;;22.15;39.68;102141.50;5011552;28;20133;-66
2023/06/05 01:38:11;;;;;;;3.30;1.65;;;;;;;22.14;39.56;102141.59;5016764;28;20033;-69
2023/06/05 01:40:37;;;;;;;3.42;1.60;;;;;;;22.16;39.41;102142.31;5016119;28;20037;-66
2023/06/05 01:43:05;;;;;;;3.67;1.48;;;;;;;22.15;39.53;102138.00;5020663;28;20539;-65
2023/06/05 01:45:31;;;;;;;5.03;1.90;;;;;;;22.14;39.76;102131.00;5017338;28;20033;-67
2023/06/05 01:47:57;;;;;;;5.13;1.83;;;;;;;22.13;39.48;102129.28;5006404;28;20136;-68
2023/06/05 01:50:23;;;;;;;6.63;1.85;;;;;;;22.10;39.39;102128.56;5019631;28;20549;-68
2023/06/05 01:52:49;;;;;;;4.25;1.80;;;;;;;22.10;39.62;102125.09;5014298;28;20033;-66
2023/06/05 01:55:26;;;;;;;4.88;2.10;;;;;;;22.09;39.75;102129.53;5007477;28;20045;-66
2023/06/05 01:57:51;;;;;;;4.45;1.50;;;;;;;22.08;39.62;102122.56;5008357;28;20095;-67
2023/06/05 02:00:20;;;;;;;4.63;1.90;;;;;;;22.08;39.53;102122.56;5010170;28;20042;-67
2023/06/05 02:02:47;;;;;;;4.53;1.77;;;;;;;22.07;39.68;102125.31;5001292;28;20037;-66
2023/06/05 02:05:14;;;;;;;4.60;1.90;;;;;;;22.09;39.73;102118.06;5015672;28;20029;-66
2023/06/05 02:07:41;;;;;;;3.20;1.63;;;;;;;22.05;39.62;102112.16;5010099;28;20033;-68
2023/06/05 02:10:08;;;;;;;3.92;1.65;;;;;;;22.08;39.58;102121.72;5020386;28;20076;-69
2023/06/05 02:12:34;;;;;;;4.05;2.03;;;;;;;22.03;39.72;102108.78;5012249;28;20041;-67
2023/06/05 02:15:00;;;;;;;4.18;1.50;;;;;;;22.04;39.54;102115.78;5001026;28;20185;-66
2023/06/05 02:17:26;;;;;;;4.30;1.98;;;;;;;22.03;39.61;102116.75;5019671;28;20038;-65
2023/06/05 02:19:52;;;;;;;5.18;2.15;;;;;;;22.04;39.39;102120.25;5020168;28;20194;-66
2023/06/05 02:22:18;;;;;;;4.50;1.90;;;;;;;22.03;39.69;102122.06;5014797;28;20099;-69
2023/06/05 02:24:44;;;;;;;3.33;1.70;;;;;;;22.02;39.75;102120.38;5009219;28;20199;-69
2023/06/05 02:27:10;;;;;;;4.35;1.70;;;;;;;22.03;39.49;102115.91;5022250;28;20037;-65
2023/06/05 02:29:36;;;;;;;3.83;1.75;;;;;;;22.01;39.40;102117.84;5023571;28;20034;-69
2023/06/05 02:32:02;;;;;;;4.05;1.70;;;;;;;22.00;39.84;102109.03;5017506;28;20030;-67
2023/06/05 02:34:28;;;;;;;4.15;2.00;;;;;;;21.98;39.82;102104.81;5004232;28;20037;-66
2023/06/05 02:36:53;;;;;;;4.50;1.60;;;;;;;21.99;39.55;102106.50;5007977;28;20036;-69
2023/06/05 02:39:19;;;;;;;3.90;1.88;;;;;;;21.99;39.49;102112.66;5019407;28;20069;-69
2023/06/05 02:41:44;;;;;;;3.95;1.60;;;;;;;21.98;39.58;102108.28;5018999;28;20041;-65
2023/06/05 02:44:10;;;;;;;5.38;1.67;;;;;;;21.96;39.56;102098.78;5020897;28;20056;-66
2023/06/05 02:46:35;;;;;;;5.32;1.90;;;;;;;21.97;39.70;102101.31;5004416;28;20045;-65
2023/06/05 02:49:00;;;;;;;4.67;1.77;;;;;;;21.93;39.83;102103.34;5009468;28;20030;-65
2023/06/05 02:51:26;;;;;;;3.40;1.70;;;;;;;21.94;39.85;102101.56;5021648;28;20286;-67
2023/06/05 02:53:51;;;;;;;3.67;1.73;;;;;;;21.95;39.69;102097.06;5006429;28;20045;-66
2023/06/05 02:56:16;;;;;;;4.77;2.03;;;;;;;21.95;39.82;102099.72;5015733;28;20570;-69
2023/06/05 02:58:43;;;;;;;3.28;1.52;;;;;;;21.92;39.84;102099.00;5011236;28;20263;-66
2023/06/05 03:01:11;;;;;;;4.03;1.80;;;;;;;21.91;39.59;102097.31;5016944;28;20159;-66
2023/06/05 03:03:36;;;;;;;3.70;1.70;;;;;;;21.90;39.78;102098.28;5008863;28;20037;-66
2023/06/05 03:06:04;;;;;;;3.95;1.85;;;;;;;21.92;39.64;102101.66;5014927;28;20037;-68
2023/06/05 03:08:36;;;;;;;4.25;1.60;;;;;;;21.87;39.71;102090.56;5013453;28;20079;-66
2023/06/05 03:11:02;;;;;;;4.47;1.98;;;;;;;21.86;39.58;102090.69;5009784;28;20048;-65
2023/06/05 03:13:28;;;;;;;3.70;2.05;;;;;;;21.87;39.63;102095.00;5015527;28;20030;-66
2023/06/05 03:15:56;;;;;;;7.35;1.88;;;;;;;21.85;39.77;102094.28;5019907;28;20120;-70
2023/06/05 03:18:24;;;;;;;5.78;2.00;;;;;;;21.86;39.58;102093.34;5008278;28;20380;-63
2023/06/05 03:20:54;;;;;;;4.40;2.10;;;;;;;21.86;39.67;102099.47;5007790;28;20087;-66
2023/06/05 03:23:21;;;;;;;4.57;2.13;;;;;;;21.86;39.70;102088.03;5019730;28;20036;-66
2023/06/05 03:25:47;;;;;;;3.65;2.10;;;;;;;21.84;39.31;102087.28;5015678;28;20458;-66
2023/06/05 03:28:12;;;;;;;5.20;2.10;;;;;;;21.83;39.82;102086.47;5011273;28;20022;-67
2023/06/05 03:30:37;;;;;;;3.90;2.00;;;;;;;21.85;39.70;102083.69;5008229;28;20314;-66
2023/06/05 03:33:02;;;;;;;4.03;1.92;;;;;;;21.83;39.90;102085.63;5013225;28;20274;-66
2023/06/05 03:35:28;;;;;;;5.07;2.30;;;;;;;21.82;39.85;102075.97;5017034;28;20088;-69
2023/06/05 03:37:53;;;;;;;4.05;1.95;;;;;;;21.82;39.73;102075.97;5011054;28;20037;-69
2023/06/05 03:40:18;;;;;;;5.00;2.00;;;;;;;21.81;39.86;102072.47;5010622;28;20438;-66
2023/06/05 03:42:44;;;;;;;4.05;1.92;;;;;;;21.81;39.53;102074.25;5010603;28;20093;-67
2023/06/05 03:45:10;;;;;;;5.72;2.10;;;;;;;21.82;39.67;102073.31;5014013;28;20034;-66
2023/06/05 03:47:35;;;;;;;3.47;1.80;;;;;;;21.79;39.59;102071.72;5017602;28;20652;-65
2023/06/05 03:50:02;;;;;;;4.03;1.98;;;;;;;21.79;39.52;102078.84;5011321;28;20069;-68
2023/06/05 03:52:29;;;;;;;4.22;1.90;;;;;;;21.81;39.80;102080.44;5009323;28;20030;-65
2023/06/05 03:54:55;;;;;;;4.00;1.83;;;;;;;21.80;39.92;102077.91;5016711;28;20538;-65
2023/06/05 03:57:21;;;;;;;5.13;2.08;;;;;;;21.78;39.94;102083.31;5013190;28;20431;-67
2023/06/05 03:59:49;;;;;;;4.45;2.15;;;;;;;21.79;39.80;102089.47;5013803;28;20048;-66
2023/06/05 04:02:15;;;;;;;4.18;2.15;;;;;;;21.77;39.72;102084.28;5009678;28;20041;-66
2023/06/05 04:04:40;;;;;;;4.05;2.20;;;;;;;21.78;39.61;102090.41;5017327;28;20458;-65
2023/06/05 04:07:06;;;;;;;3.70;1.88;;;;;;;21.76;39.82;102082.56;5012152;28;20028;-67
2023/06/05 04:09:31;;;;;;;4.45;2.08;;;;;;;21.77;39.86;102088.75;5015906;28;20057;-66
2023/06/05 04:11:57;;;;;;;4.53;2.25;;;;;;;21.77;39.80;102091.41;5013513;28;20044;-67
2023/06/05 04:14:22;;;;;;;4.15;2.20;;;;;;;21.75;39.66;102083.56;5016002;28;20046;-71
2023/06/05 04:16:48;;;;;;;4.05;1.85;;;;;;;21.76;39.61;102084.38;5016823;28;20489;-65
2023/06/05 04:19:13;;;;;;;4.33;2.03;;;;;;;21.76;39.23;102087.03;5010503;28;20533;-66
2023/06/05 04:21:40;;;;;;;4.70;2.10;;;;;;;21.74;39.66;102088.00;5005301;28;20259;-65
2023/06/05 04:24:10;;;;;;;4.43;2.10;;;;;;;21.75;39.74;102094.16;5014674;28;20064;-69
2023/06/05 04:26:37;;;;;;;6.43;2.50;;;;;;;21.76;39.82;102095.00;5012950;28;20044;-65
2023/06/05 04:29:09;;;;;;;4.28;2.00;;;;;;;21.74;39.74;102100.44;5020688;28;20033;-65
2023/06/05 04:31:34;;;;;;;3.92;1.90;;;;;;;21.74;39.79;102098.59;5010375;28;20975;-66
2023/06/05 04:34:01;;;;;;;4.30;2.30;;;;;;;21.74;39.74;102097.78;5007065;28;20080;-66
2023/06/05 04:36:28;;;;;;;5.30;2.20;;;;;;;21.73;39.73;102102.25;5015880;28;20512;-67
2023/06/05 04:38:53;;;;;;;4.40;2.20;;;;;;;21.72;39.61;102099.72;5001752;28;20454;-68
2023/06/05 04:41:21;;;;;;;5.53;2.30;;;;;;;21.72;39.76;102097.91;5015711;28;20128;-67
2023/06/05 04:43:46;;;;;;;5.25;2.13;;;;;;;21.67;39.75;102097.41;5006393;28;20032;-67
2023/06/05 04:46:11;;;;;;;5.10;2.30;;;;;;;21.71;39.70;102108.63;5007288;28;20124;-69
2023/06/05 04:48:37;;;;;;;4.65;2.30;;;;;;;21.71;39.52;102109.50;5017650;28;20432;-66
2023/06/05 04:51:03;;;;;;;4.25;2.25;;;;;;;21.70;39.62;102109.59;5017321;28;20179;-66
2023/06/05 04:53:28;;;;;;;4.20;2.20;;;;;;;21.68;39.61;102107.06;5006327;28;20087;-68
2023/06/05 04:55:55;;;;;;;3.83;2.00;;;;;;;21.69;39.75;102108.75;5017154;28;20046;-68
2023/06/05 04:58:21;;;;;;;4.00;2.03;;;;;;;21.71;39.78;102113.94;5015117;28;21533;-66
2023/06/05 05:00:49;;;;;;;4.22;2.03;;;;;;;21.68;39.78;102101.75;5005174;28;20044;-67
2023/06/05 05:03:14;;;;;;;4.20;2.25;;;;;;;21.67;39.93;102109.84;5002268;28;20040;-67
2023/06/05 05:05:39;;;;;;;4.75;2.15;;;;;;;21.68;39.89;102109.72;5015595;28;20038;-67
2023/06/05 05:08:05;;;;;;;4.35;2.13;;;;;;;21.69;39.63;102108.75;5008415;28;20033;-66
2023/06/05 05:10:31;;;;;;;5.03;2.40;;;;;;;21.69;39.97;102105.25;5010046;28;20033;-66
2023/06/05 05:12:56;;;;;;;4.55;2.33;;;;;;;21.69;39.76;102105.25;5019613;28;20034;-67
2023/06/05 05:15:22;;;;;;;3.77;2.20;;;;;;;21.69;39.90;102106.09;5016704;28;20041;-68
2023/06/05 05:17:49;;;;;;;4.18;2.10;;;;;;;21.68;39.67;102099.09;5001164;28;21569;-65
2023/06/05 05:20:14;;;;;;;4.65;2.45;;;;;;;21.67;39.96;102096.56;5001501;28;20042;-66
2023/06/05 05:22:39;;;;;;;5.22;2.20;;;;;;;21.69;39.73;102099.94;5011470;28;20044;-65
2023/06/05 05:25:05;;;;;;;4.63;2.30;;;;;;;21.62;39.99;102096.94;5003580;28;20442;-65
2023/06/05 05:27:30;;;;;;;4.28;2.17;;;;;;;21.70;39.64;102109.59;5003816;28;20576;-66
2023/06/05 05:29:56;;;;;;;4.03;2.17;;;;;;;21.67;39.66;102102.72;5014105;28;20367;-67
2023/06/05 05:32:21;;;;;;;4.30;2.20;;;;;;;21.69;39.47;102102.59;5020643;28;20030;-66
2023/06/05 05:34:47;;;;;;;4.55;2.35;;;;;;;21.72;39.63;102105.00;5020676;28;20297;-66
2023/06/05 05:37:13;;;;;;;5.10;2.42;;;;;;;21.70;39.73;102099.00;5008814;28;20065;-66
2023/06/05 05:39:38;;;;;;;4.53;2.13;;;;;;;21.69;39.57;102105.25;5000587;28;20038;-65
2023/06/05 05:42:04;;;;;;;4.95;2.42;;;;;;;21.70;39.92;102101.66;5015115;28;20052;-68
2023/06/05 05:44:29;;;;;;;4.53;2.55;;;;;;;21.72;39.63;102102.38;5020275;28;20025;-67
2023/06/05 05:46:55;;;;;;;4.97;2.50;;;;;;;21.71;39.75;102098.88;5008566;28;20972;-66
2023/06/05 05:49:20;;;;;;;4.63;2.47;;;;;;;21.72;40.05;102103.19;5020459;28;20056;-66
2023/06/05 05:51:45;;;;;;;4.13;2.20;;;;;;;21.73;39.76;102102.25;5017703;28;20326;-67
2023/06/05 05:54:11;;;;;;;6.65;2.78;;;;;;;21.74;39.91;102113.69;5002475;28;20041;-64
2023/06/05 05:56:36;;;;;;;4.47;2.40;;;;;;;21.74;39.63;102103.91;5021758;28;20253;-65
2023/06/05 05:59:03;;;;;;;3.80;2.42;;;;;;;21.73;39.84;102104.06;5004202;28;20310;-68
2023/06/05 06:01:28;;;;;;;5.43;2.65;;;;;;;21.74;39.82;102111.88;5012775;28;20394;-66
2023/06/05 06:03:54;;;;;;;4.07;2.50;;;;;;;21.77;39.80;102115.28;5022162;28;20041;-66
2023/06/05 06:06:20;;;;;;;4.65;2.28;;;;;;;21.76;39.59;102122.38;5013920;28;20262;-65
2023/06/05 06:08:45;;;;;;;4.15;2.25;;;;;;;21.76;39.62;102126.84;5024283;28;20040;-68
2023/06/05 06:11:10;;;;;;;4.53;2.30;;;;;;;21.78;39.85;102123.13;5023845;28;20037;-66
2023/06/05 06:13:36;;;;;;;4.70;2.65;;;;;;;21.78;39.80;102122.25;5017840;28;20034;-69
2023/06/05 06:16:02;;;;;;;4.82;2.58;;;;;;;21.78;39.61;102123.13;5009118;28;20064;-70
2023/06/05 06:18:28;;;;;;;5.57;2.25;;;;;;;21.76;39.85;102121.53;5015586;28;20049;-67
2023/06/05 06:20:53;;;;;;;6.97;2.75;;;;;;;21.80;39.76;102129.16;5019312;28;20406;-67
2023/06/05 06:23:19;;;;;;;4.85;2.80;;;;;;;21.78;39.64;102123.13;5019125;28;20033;-65
2023/06/05 06:25:44;;;;;;;5.97;2.40;;;;;;;21.80;40.00;102126.50;5016226;28;20149;-68
2023/06/05 06:28:10;;;;;;;4.82;2.30;;;;;;;21.82;40.08;102124.56;5024015;28;20087;-69
2023/06/05 06:30:36;;;;;;;5.85;2.60;;;;;;;21.83;39.85;102125.44;5023913;28;20037;-65
2023/06/05 06:33:04;;;;;;;5.88;2.42;;;;;;;21.76;40.27;102126.84;5017233;28;20087;-67
2023/06/05 06:35:31;;;;;;;4.80;2.80;;;;;;;21.79;40.20;102127.44;5005258;28;20385;-66
2023/06/05 06:37:57;;;;;;;5.00;2.40;;;;;;;21.82;40.31;102126.38;5020470;28;20043;-65
2023/06/05 06:40:23;;;;;;;4.10;2.22;;;;;;;21.79;40.31;102121.31;5012790;28;20037;-68
2023/06/05 06:42:50;;;;;;;5.30;2.55;;;;;;;21.84;40.60;102121.78;5015317;28;20040;-67
2023/06/05 06:45:15;;;;;;;4.50;2.45;;;;;;;21.85;40.66;102129.63;5017131;28;20040;-66
2023/06/05 06:47:42;;;;;;;5.57;2.67;;;;;;;21.86;40.43;102126.03;5003962;28;20034;-66
2023/06/05 06:50:07;;;;;;;5.65;2.70;;;;;;;21.90;40.53;102139.91;5013309;28;20543;-70
2023/06/05 06:52:33;;;;;;;6.25;2.70;;;;;;;21.87;40.61;102133.03;5014055;28;20041;-69
2023/06/05 06:54:58;;;;;;;6.55;2.97;;;;;;;21.88;40.71;102128.56;5010698;28;20042;-69
2023/06/05 06:57:23;;;;;;;5.65;2.67;;;;;;;21.87;40.62;102132.16;5003698;28;20040;-71
2023/06/05 06:59:48;;;;;;;6.03;2.80;;;;;;;21.88;40.73;102140.00;5012860;28;20033;-71
2023/06/05 07:02:19;;;;;;;4.90;2.70;;;;;;;21.88;40.91;102133.88;5016532;28;20042;-68
2023/06/05 07:04:45;;;;;;;5.53;2.33;;;;;;;21.92;40.62;102143.25;5011691;28;20197;-68
2023/06/05 07:07:16;;;;;;;5.55;2.53;;;;;;;21.94;40.95;102141.34;5022884;28;20035;-70
2023/06/05 07:09:42;;;;;;;5.10;2.60;;;;;;;21.90;40.72;102145.19;5023251;28;20580;-68
2023/06/05 07:12:09;;;;;;;5.30;2.38;;;;;;;21.89;40.72;102132.91;5010969;28;20037;-67
2023/06/05 07:14:34;;;;;;;5.28;2.60;;;;;;;21.93;40.80;102144.97;5020422;28;20053;-68
2023/06/05 07:17:00;;;;;;;6.15;2.70;;;;;;;;;;5013093;28;20038;-70
2023/06/05 07:19:30;;;;;;;3.97;2.10;;;;;;;21.92;40.89;102148.56;5008848;28;20054;-67
2023/06/05 07:21:57;;;;;;;5.05;2.58;;;;;;;21.90;41.17;102145.19;5014225;28;20034;-70
2023/06/05 07:24:26;;;;;;;7.68;3.08;;;;;;;21.91;40.77;102144.25;5018639;28;20470;-68
2023/06/05 07:26:53;;;;;;;6.50;2.70;;;;;;;21.91;40.99;102146.91;5003348;28;20120;-67
2023/06/05 07:29:20;;;;;;;6.07;2.92;;;;;;;21.90;41.17;102155.81;5003151;28;20037;-67
2023/06/05 07:31:47;;;;;;;5.82;3.13;;;;;;;21.93;40.91;102153.75;5010462;28;20037;-66
2023/06/05 07:34:12;;;;;;;6.00;3.33;;;;;;;21.96;41.39;102144.72;5020324;28;20116;-68
2023/06/05 07:36:38;;;;;;;6.15;3.08;;;;;;;21.93;41.40;102151.09;5020178;28;20615;-67
2023/06/05 07:39:04;;;;;;;7.93;3.13;;;;;;;21.92;41.62;102160.06;5011703;28;20048;-68
2023/06/05 07:41:29;;;;;;;7.93;3.15;;;;;;;21.89;41.83;102149.66;5021844;28;20129;-68
2023/06/05 07:43:54;;;;;;;8.03;2.80;;;;;;;21.91;41.63;102152.22;5015660;28;20121;-68
2023/06/05 07:46:20;;;;;;;5.80;2.83;;;;;;;21.87;42.03;102148.97;5002554;28;20271;-70
2023/06/05 07:48:45;;;;;;;6.30;2.75;;;;;;;21.92;42.02;102151.22;5002871;28;20402;-68
2023/06/05 07:51:10;;;;;;;6.72;2.97;;;;;;;21.96;41.55;102152.69;5018432;28;20148;-67
2023/06/05 07:53:36;;;;;;;7.85;3.05;;;;;;;21.95;41.37;102140.38;5011440;28;20037;-70
2023/06/05 07:56:01;;;;;;;7.22;2.70;;;;;;;21.99;41.54;102154.28;5003620;28;20148;-67
2023/06/05 07:58:27;;;;;;;6.03;3.30;;;;;;;22.03;41.05;102147.75;5005389;28;20547;-67
2023/06/05 08:00:53;;;;;;;7.38;3.78;;;;;;;22.03;40.57;102153.91;5009349;28;20034;-72
2023/06/05 08:03:19;;;;;;;6.90;3.67;;;;;;;21.96;41.23;102144.72;5008462;28;20129;-67
2023/06/05 08:05:46;;;;;;;6.68;3.90;;;;;;;21.96;40.70;102141.25;5014628;28;20042;-67
2023/06/05 08:08:12;;;;;;;11.07;3.90;;;;;;;21.97;40.75;102143.78;5008405;28;20043;-65
2023/06/05 08:10:37;;;;;;;8.32;4.05;;;;;;;21.99;40.84;102138.34;5015067;28;20033;-67
2023/06/05 08:13:02;;;;;;;7.38;4.10;;;;;;;22.00;40.28;102147.97;5018613;28;20037;-67
2023/06/05 08:15:28;;;;;;;8.02;4.22;;;;;;;22.01;40.66;102152.34;5013090;28;20049;-66
2023/06/05 08:17:53;;;;;;;8.82;4.38;;;;;;;21.96;40.49;102138.59;5008738;28;20450;-64
2023/06/05 08:20:19;;;;;;;7.50;4.13;;;;;;;21.95;40.29;102131.56;5009331;28;20048;-66
2023/06/05 08:22:44;;;;;;;5.95;3.80;;;;;;;21.94;40.36;102141.34;5015866;28;20326;-67
2023/06/05 08:25:10;;;;;;;7.85;3.28;;;;;;;21.90;40.63;102126.63;5002333;28;20463;-67
2023/06/05 08:27:35;;;;;;;7.70;3.13;;;;;;;21.87;40.82;102132.16;5014519;28;20034;-69
2023/06/05 08:30:00;;;;;;;5.53;2.65;;;;;;;21.86;41.06;102130.50;5020897;28;20036;-67
2023/06/05 08:32:26;;;;;;;11.77;3.17;;;;;;;21.86;40.96;102123.38;5003836;28;20390;-67
2023/06/05 08:34:51;;;;;;;11.57;4.05;;;;;;;21.91;41.72;102115.88;5010034;28;20026;-65
2023/06/05 08:37:16;;;;;;;6.40;2.90;;;;;;;21.95;41.87;102120.97;5019123;28;20125;-65
2023/06/05 08:39:42;;;;;;;8.80;3.28;;;;;;;21.94;42.00;102120.13;5020098;28;20738;-66
2023/06/05 08:42:07;;;;;;;7.90;3.00;;;;;;;21.93;41.93;102116.59;5015908;28;20030;-66
2023/06/05 08:44:33;;;;;;;6.30;2.40;;;;;;;21.96;41.88;102114.69;5013391;28;20267;-66
2023/06/05 08:47:03;;;;;;;7.63;2.95;;;;;;;21.92;41.98;102111.41;5003757;28;20061;-67
2023/06/05 08:49:29;;;;;;;5.43;2.85;;;;;;;21.91;41.72;102113.25;5011618;28;20029;-66
2023/06/05 08:52:00;;;;;;;5.43;2.80;;;;;;;21.91;41.59;102109.75;5001368;28;20038;-67
2023/06/05 08:54:26;;;;;;;7.80;2.65;;;;;;;21.88;41.87;102112.63;5001789;28;20041;-66
2023/06/05 08:56:52;;;;;;;5.70;2.45;;;;;;;21.87;41.73;102110.94;5004558;28;21117;-66
2023/06/05 08:59:19;;;;;;;6.32;2.58;;;;;;;21.90;41.76;102110.69;5005526;28;20038;-67
2023/06/05 09:01:47;;;;;;;5.28;2.65;;;;;;;21.93;41.78;102113.13;5015144;28;20409;-64
2023/06/05 09:04:12;;;;;;;6.25;2.85;;;;;;;21.99;41.63;102114.47;5009704;28;20108;-65
2023/06/05 09:06:39;;;;;;;5.30;2.70;;;;;;;22.02;41.47;102109.75;5016890;28;20029;-66
2023/06/05 09:09:05;;;;;;;6.35;2.70;;;;;;;22.07;41.69;102117.34;5008857;28;20089;-65
2023/06/05 09:11:31;;;;;;;4.75;2.58;;;;;;;22.07;41.60;102112.03;5020248;28;20128;-65
2023/06/05 09:13:59;;;;;;;6.15;2.45;;;;;;;22.09;41.74;102113.59;5007960;28;20528;-67
2023/06/05 09:16:44;;;;;;;5.63;2.30;;;;;;;22.08;41.74;102116.41;5020549;28;20080;-64
2023/06/05 09:19:13;;;;;;;5.65;2.53;;;;;;;22.12;41.68;102111.69;5015294;28;20111;-66
2023/06/05 09:21:39;;;;;;;5.18;2.30;;;;;;;22.13;41.75;102103.59;5010642;28;20038;-68
2023/06/05 09:24:23;;;;;;;5.47;2.65;;;;;;;22.14;41.76;102105.28;5009650;28;20037;-65
2023/06/05 09:26:55;;;;;;;6.17;2.53;;;;;;;22.12;41.86;102096.59;5000972;28;20029;-65
2023/06/05 09:29:21;;;;;;;4.65;2.47;;;;;;;22.15;41.42;102104.31;5009570;28;20026;-66
2023/06/05 09:31:48;;;;;;;6.03;3.20;;;;;;;22.17;41.66;102097.06;5010595;28;20603;-68
2023/06/05 09:34:24;;;;;;;7.13;3.90;;;;;;;22.19;41.89;102104.91;5009622;28;20029;-66
2023/06/05 09:36:49;;;;;;;8.25;3.95;;;;;;;22.22;42.07;102096.72;5022870;28;20037;-67
2023/06/05 09:39:16;;;;;;;8.15;4.15;;;;;;;22.26;41.67;102098.16;5014153;28;20044;-66
2023/06/05 09:41:44;;;;;;;8.75;4.88;;;;;;;22.23;41.47;102098.41;5015323;28;20982;-67
2023/06/05 09:44:09;;;;;;;7.50;4.80;;;;;;;22.30;41.79;102094.31;5010182;28;20128;-65
2023/06/05 09:46:35;;;;;;;7.43;4.47;;;;;;;22.33;41.94;102088.75;5020602;28;20120;-69
2023/06/05 09:49:00;;;;;;;9.07;5.10;;;;;;;22.36;42.32;102095.66;5018740;28;20041;-66
2023/06/05 09:51:26;;;;;;;8.25;5.13;;;;;;;22.40;41.84;102094.44;5009649;28;20034;-69
2023/06/05 09:53:51;;;;;;;8.70;5.05;;;;;;;22.40;41.90;102092.63;5008189;28;20034;-68
2023/06/05 09:56:18;;;;;;;8.80;5.20;;;;;;;22.42;42.36;102100.47;5009909;28;20029;-67
2023/06/05 09:58:52;;;;;;;9.00;5.45;;;;;;;22.41;42.30;102085.50;5011923;28;20025;-67
2023/06/05 10:01:22;;;;;;;8.50;5.07;;;;;;;22.42;42.18;102088.03;5010974;28;20041;-68
2023/06/05 10:03:57;;;;;;;7.18;4.80;;;;;;;22.43;42.15;102087.06;5004021;28;20054;-67
2023/06/05 10:06:23;;;;;;;7.47;4.80;;;;;;;22.45;41.87;102086.94;5016010;28;20037;-68
2023/06/05 10:08:52;;;;;;;8.88;4.68;;;;;;;22.48;41.89;102083.19;5010657;28;20061;-69
2023/06/05 10:11:19;;;;;;;10.30;5.78;;;;;;;22.45;42.02;102078.97;5009287;28;20029;-66
2023/06/05 10:13:46;;;;;;;10.57;5.45;;;;;;;22.40;42.11;102071.38;5023300;28;20044;-66
2023/06/05 10:16:15;;;;;;;8.90;4.97;;;;;;;22.36;42.05;102074.41;5017667;28;20061;-66
2023/06/05 10:18:41;;;;;;;8.07;5.07;;;;;;;22.37;42.04;102068.13;5014284;28;20060;-69
2023/06/05 10:21:07;;;;;;;8.35;4.78;;;;;;;22.37;41.83;102070.78;5018789;28;20041;-68
2023/06/05 10:23:33;;;;;;;8.32;4.70;;;;;;;22.42;42.03;102072.09;5013522;28;20652;-69
2023/06/05 10:26:04;;;;;;;7.70;4.57;;;;;;;22.49;41.88;102071.59;5009846;28;20029;-69
2023/06/05 10:28:37;;;;;;;7.40;4.38;;;;;;;22.50;41.79;102065.34;5016536;28;20034;-70
2023/06/05 10:31:15;;;;;;;7.30;4.70;;;;;;;22.55;41.92;102073.78;5012477;28;20048;-69
2023/06/05 10:34:17;;;;;;;7.63;4.80;;;;;;;22.55;41.65;102071.13;5013186;28;20048;-69
2023/06/05 10:36:51;;;;;;;9.73;4.78;;;;;;;22.57;41.62;102069.16;5011543;28;20037;-68
2023/06/05 10:39:18;;;;;;;7.70;4.90;;;;;;;22.53;41.69;102068.56;5012154;28;20037;-67
2023/06/05 10:41:44;;;;;;;7.32;4.90;;;;;;;22.51;41.93;102070.53;5022507;28;20080;-68
2023/06/05 10:44:10;;;;;;;7.43;5.00;;;;;;;22.53;42.17;102065.91;5008149;28;20065;-70
2023/06/05 10:46:36;;;;;;;9.93;5.20;;;;;;;22.54;42.25;102070.28;5013481;28;20411;-68
2023/06/05 10:49:07;;;;;;;9.32;4.70;;;;;;;22.54;42.04;102075.59;5011518;28;20057;-69
2023/06/05 10:51:46;;;;;;;6.75;4.55;;;;;;;22.55;42.11;102063.97;5008297;28;20096;-67
2023/06/05 10:54:17;;;;;;;7.40;5.10;;;;;;;22.53;42.23;102059.78;5010456;28;20084;-70
2023/06/05 10:57:05;;;;;;;7.35;4.50;;;;;;;22.51;42.31;102065.22;5003617;28;20041;-67
2023/06/05 10:59:32;;;;;;;8.75;4.53;;;;;;;22.51;41.86;102053.72;5010493;28;20038;-71
2023/06/05 11:02:16;;;;;;;7.55;4.70;;;;;;;22.54;42.28;102054.34;5009205;28;20401;-71
2023/06/05 11:04:42;;;;;;;6.95;4.90;;;;;;;22.61;41.88;102052.84;5010358;28;20040;-70
2023/06/05 11:07:18;;;;;;;8.43;5.32;;;;;;;22.61;41.86;102042.22;5009308;28;20386;-68
2023/06/05 11:10:01;;;;;;;7.68;4.55;;;;;;;22.67;41.88;102056.84;5020322;28;20036;-71
2023/06/05 11:12:47;;;;;;;7.43;4.80;;;;;;;22.67;42.14;102046.22;5009333;28;20040;-66
2023/06/05 11:15:34;;;;;;;6.63;4.07;;;;;;;22.60;42.07;102050.31;5017213;28;20073;-67
2023/06/05 11:18:28;;;;;;;9.50;5.38;;;;;;;22.59;42.22;102041.50;5002777;28;20054;-66
2023/06/05 11:20:54;;;;;;;8.13;4.75;;;;;;;22.59;41.63;102041.50;5009276;28;20041;-68
2023/06/05 11:23:21;;;;;;;12.15;4.50;;;;;;;22.58;41.47;102042.47;5014364;28;20064;-67
2023/06/05 11:25:47;;;;;;;8.82;4.30;;;;;;;22.53;41.71;102023.41;5004154;28;20167;-69
2023/06/05 11:28:13;;;;;;;12.43;4.53;;;;;;;22.48;41.79;102033.59;5008744;28;20155;-69